sensor_id;sensor_type;location;lat;lon;timestamp;temperature;humidity
1129;DHT22;553;51.038;7.216;2024-03-06T00:00:22;7.50;99.90
1129;DHT22;553;51.038;7.216;2024-03-06T00:02:50;7.50;99.90
1129;DHT22;553;51.038;7.216;2024-03-06T00:05:17;7.50;99.90
1129;DHT22;553;51.038;7.216;2024-03-06T00:07:43;7.40;99.90
1129;DHT22;553;51.038;7.216;2024-03-06T00:10:10;7.40;99.90
1129;DHT22;553;51.038;7.216;2024-03-06T00:12:37;7.40;99.90
1129;DHT22;553;51.038;7.216;2024-03-06T00:15:04;7.40;99.90
1129;DHT22;553;51.038;7.216;2024-03-06T00:17:31;7.30;99.90
1129;DHT22;553;51.038;7.216;2024-03-06T00:19:57;7.20;99.90
1129;DHT22;553;51.038;7.216;2024-03-06T00:22:24;7.20;99.90
1129;DHT22;553;51.038;7.216;2024-03-06T00:24:51;7.20;99.90
1129;DHT22;553;51.038;7.216;2024-03-06T00:27:18;7.10;99.90
1129;DHT22;553;51.038;7.216;2024-03-06T00:29:45;7.00;99.90
1129;DHT22;553;51.038;7.216;2024-03-06T00:32:12;7.00;99.90
1129;DHT22;553;51.038;7.216;2024-03-06T00:34:39;7.00;99.90
1129;DHT22;553;51.038;7.216;2024-03-06T00:37:06;7.10;99.90
1129;DHT22;553;51.038;7.216;2024-03-06T00:39:33;7.00;99.90
1129;DHT22;553;51.038;7.216;2024-03-06T00:42:00;7.00;99.90
1129;DHT22;553;51.038;7.216;2024-03-06T00:44:26;7.00;99.90
1129;DHT22;553;51.038;7.216;2024-03-06T00:46:54;6.90;99.90
1129;DHT22;553;51.038;7.216;2024-03-06T00:49:21;6.90;99.90
1129;DHT22;553;51.038;7.216;2024-03-06T00:51:47;6.80;99.90
1129;DHT22;553;51.038;7.216;2024-03-06T00:54:15;6.90;99.90
1129;DHT22;553;51.038;7.216;2024-03-06T00:56:43;7.00;99.90
1129;DHT22;553;51.038;7.216;2024-03-06T00:59:10;7.00;99.90
1129;DHT22;553;51.038;7.216;2024-03-06T01:01:37;6.90;99.90
1129;DHT22;553;51.038;7.216;2024-03-06T01:04:04;6.90;99.90
1129;DHT22;553;51.038;7.216;2024-03-06T01:06:31;6.90;99.90
1129;DHT22;553;51.038;7.216;2024-03-06T01:08:58;6.90;99.90
1129;DHT22;553;51.038;7.216;2024-03-06T01:11:25;6.80;99.90
1129;DHT22;553;51.038;7.216;2024-03-06T01:13:53;6.80;99.90
1129;DHT22;553;51.038;7.216;2024-03-06T01:16:20;6.90;99.90
1129;DHT22;553;51.038;7.216;2024-03-06T01:18:47;6.90;99.90
1129;DHT22;553;51.038;7.216;2024-03-06T01:21:14;6.90;99.90
1129;DHT22;553;51.038;7.216;2024-03-06T01:23:41;7.00;99.90
1129;DHT22;553;51.038;7.216;2024-03-06T01:26:08;6.90;99.90
1129;DHT22;553;51.038;7.216;2024-03-06T01:28:34;6.80;99.90
1129;DHT22;553;51.038;7.216;2024-03-06T01:31:03;6.70;99.90
1129;DHT22;553;51.038;7.216;2024-03-06T01:33:30;6.70;99.90
1129;DHT22;553;51.038;7.216;2024-03-06T01:35:57;6.70;99.90
1129;DHT22;553;51.038;7.216;2024-03-06T01:38:24;6.60;99.90
1129;DHT22;553;51.038;7.216;2024-03-06T01:40:50;6.40;99.90
1129;DHT22;553;51.038;7.216;2024-03-06T01:43:21;6.50;99.90
1129;DHT22;553;51.038;7.216;2024-03-06T01:45:49;6.50;99.90
1129;DHT22;553;51.038;7.216;2024-03-06T01:48:17;6.50;99.90
1129;DHT22;553;51.038;7.216;2024-03-06T01:50:45;6.40;99.90
1129;DHT22;553;51.038;7.216;2024-03-06T01:53:13;6.40;99.90
1129;DHT22;553;51.038;7.216;2024-03-06T01:55:41;6.50;99.90
1129;DHT22;553;51.038;7.216;2024-03-06T01:58:08;6.40;99.90
1129;DHT22;553;51.038;7.216;2024-03-06T02:00:35;6.40;99.90
1129;DHT22;553;51.038;7.216;2024-03-06T02:03:03;6.30;99.90
1129;DHT22;553;51.038;7.216;2024-03-06T02:05:29;6.30;99.90
1129;DHT22;553;51.038;7.216;2024-03-06T02:07:58;6.20;99.90
1129;DHT22;553;51.038;7.216;2024-03-06T02:10:30;6.20;99.90
1129;DHT22;553;51.038;7.216;2024-03-06T02:12:57;6.20;99.90
1129;DHT22;553;51.038;7.216;2024-03-06T02:15:24;6.20;99.90
1129;DHT22;553;51.038;7.216;2024-03-06T02:17:51;6.20;99.90
1129;DHT22;553;51.038;7.216;2024-03-06T02:20:24;6.20;99.90
1129;DHT22;553;51.038;7.216;2024-03-06T02:22:51;6.20;99.90
1129;DHT22;553;51.038;7.216;2024-03-06T02:25:18;6.20;99.90
1129;DHT22;553;51.038;7.216;2024-03-06T02:27:46;6.20;99.90
1129;DHT22;553;51.038;7.216;2024-03-06T02:30:14;6.20;99.90
1129;DHT22;553;51.038;7.216;2024-03-06T02:32:41;6.30;99.90
1129;DHT22;553;51.038;7.216;2024-03-06T02:35:10;6.30;99.90
1129;DHT22;553;51.038;7.216;2024-03-06T02:37:38;6.30;99.90
1129;DHT22;553;51.038;7.216;2024-03-06T02:40:06;6.30;99.90
1129;DHT22;553;51.038;7.216;2024-03-06T02:42:33;6.20;99.90
1129;DHT22;553;51.038;7.216;2024-03-06T02:45:00;6.20;99.90
1129;DHT22;553;51.038;7.216;2024-03-06T02:47:27;6.20;99.90
1129;DHT22;553;51.038;7.216;2024-03-06T02:49:53;6.20;99.90
1129;DHT22;553;51.038;7.216;2024-03-06T02:52:20;6.30;99.90
1129;DHT22;553;51.038;7.216;2024-03-06T02:54:47;6.30;99.90
1129;DHT22;553;51.038;7.216;2024-03-06T02:57:14;6.30;99.90
1129;DHT22;553;51.038;7.216;2024-03-06T02:59:41;6.30;99.90
1129;DHT22;553;51.038;7.216;2024-03-06T03:02:07;6.30;99.90
1129;DHT22;553;51.038;7.216;2024-03-06T03:04:34;6.30;99.90
1129;DHT22;553;51.038;7.216;2024-03-06T03:07:01;6.30;99.90
1129;DHT22;553;51.038;7.216;2024-03-06T03:09:27;6.30;99.90
1129;DHT22;553;51.038;7.216;2024-03-06T03:11:54;6.20;99.90
1129;DHT22;553;51.038;7.216;2024-03-06T03:14:21;6.20;99.90
1129;DHT22;553;51.038;7.216;2024-03-06T03:16:48;6.30;99.90
1129;DHT22;553;51.038;7.216;2024-03-06T03:19:15;6.30;99.90
1129;DHT22;553;51.038;7.216;2024-03-06T03:21:44;6.20;99.90
1129;DHT22;553;51.038;7.216;2024-03-06T03:24:12;6.20;99.90
1129;DHT22;553;51.038;7.216;2024-03-06T03:26:38;6.20;99.90
1129;DHT22;553;51.038;7.216;2024-03-06T03:29:05;6.20;99.90
1129;DHT22;553;51.038;7.216;2024-03-06T03:31:37;6.10;99.90
1129;DHT22;553;51.038;7.216;2024-03-06T03:34:07;6.10;99.90
1129;DHT22;553;51.038;7.216;2024-03-06T03:36:39;6.10;99.90
1129;DHT22;553;51.038;7.216;2024-03-06T03:39:06;6.00;99.90
1129;DHT22;553;51.038;7.216;2024-03-06T03:41:34;6.00;99.90
1129;DHT22;553;51.038;7.216;2024-03-06T03:44:01;6.00;99.90
1129;DHT22;553;51.038;7.216;2024-03-06T03:46:28;6.00;99.90
1129;DHT22;553;51.038;7.216;2024-03-06T03:48:55;6.00;99.90
1129;DHT22;553;51.038;7.216;2024-03-06T03:51:22;6.00;99.90
1129;DHT22;553;51.038;7.216;2024-03-06T03:53:49;6.00;99.90
1129;DHT22;553;51.038;7.216;2024-03-06T03:56:17;5.90;99.90
1129;DHT22;553;51.038;7.216;2024-03-06T03:58:44;6.00;99.90
1129;DHT22;553;51.038;7.216;2024-03-06T04:01:11;6.00;99.90
1129;DHT22;553;51.038;7.216;2024-03-06T04:03:38;5.90;99.90
1129;DHT22;553;51.038;7.216;2024-03-06T04:06:05;6.00;99.90
1129;DHT22;553;51.038;7.216;2024-03-06T04:08:33;6.00;99.90
1129;DHT22;553;51.038;7.216;2024-03-06T04:10:59;6.00;99.90
1129;DHT22;553;51.038;7.216;2024-03-06T04:13:26;6.00;99.90
1129;DHT22;553;51.038;7.216;2024-03-06T04:15:53;6.10;99.90
1129;DHT22;553;51.038;7.216;2024-03-06T04:18:19;6.20;99.90
1129;DHT22;553;51.038;7.216;2024-03-06T04:20:46;6.10;99.90
1129;DHT22;553;51.038;7.216;2024-03-06T04:23:13;6.20;99.90
1129;DHT22;553;51.038;7.216;2024-03-06T04:25:40;6.20;99.90
1129;DHT22;553;51.038;7.216;2024-03-06T04:28:07;6.20;99.90
1129;DHT22;553;51.038;7.216;2024-03-06T04:30:34;6.30;99.90
1129;DHT22;553;51.038;7.216;2024-03-06T04:33:01;6.30;99.90
1129;DHT22;553;51.038;7.216;2024-03-06T04:35:28;6.30;99.90
1129;DHT22;553;51.038;7.216;2024-03-06T04:37:55;6.30;99.90
1129;DHT22;553;51.038;7.216;2024-03-06T04:40:23;6.30;99.90
1129;DHT22;553;51.038;7.216;2024-03-06T04:42:51;6.40;99.90
1129;DHT22;553;51.038;7.216;2024-03-06T04:45:18;6.30;99.90
1129;DHT22;553;51.038;7.216;2024-03-06T04:47:45;6.30;99.90
1129;DHT22;553;51.038;7.216;2024-03-06T04:50:12;6.30;99.90
1129;DHT22;553;51.038;7.216;2024-03-06T04:52:42;6.30;99.90
1129;DHT22;553;51.038;7.216;2024-03-06T04:55:09;6.30;99.90
1129;DHT22;553;51.038;7.216;2024-03-06T04:57:43;6.30;99.90
1129;DHT22;553;51.038;7.216;2024-03-06T05:00:11;6.30;99.90
1129;DHT22;553;51.038;7.216;2024-03-06T05:02:38;6.30;99.90
1129;DHT22;553;51.038;7.216;2024-03-06T05:05:23;6.30;99.90
1129;DHT22;553;51.038;7.216;2024-03-06T05:08:09;6.40;99.90
1129;DHT22;553;51.038;7.216;2024-03-06T05:10:54;6.40;99.90
1129;DHT22;553;51.038;7.216;2024-03-06T05:13:39;6.50;99.90
1129;DHT22;553;51.038;7.216;2024-03-06T05:16:23;6.50;99.90
1129;DHT22;553;51.038;7.216;2024-03-06T05:19:08;6.50;99.90
1129;DHT22;553;51.038;7.216;2024-03-06T05:21:54;6.50;99.90
1129;DHT22;553;51.038;7.216;2024-03-06T05:24:40;6.50;99.90
1129;DHT22;553;51.038;7.216;2024-03-06T05:27:25;6.40;99.90
1129;DHT22;553;51.038;7.216;2024-03-06T05:30:10;6.50;99.90
1129;DHT22;553;51.038;7.216;2024-03-06T05:32:54;6.50;99.90
1129;DHT22;553;51.038;7.216;2024-03-06T05:35:39;6.40;99.90
1129;DHT22;553;51.038;7.216;2024-03-06T05:38:23;6.40;99.90
1129;DHT22;553;51.038;7.216;2024-03-06T05:41:07;6.40;99.90
1129;DHT22;553;51.038;7.216;2024-03-06T05:43:53;6.40;99.90
1129;DHT22;553;51.038;7.216;2024-03-06T05:46:37;6.40;99.90
1129;DHT22;553;51.038;7.216;2024-03-06T05:49:21;6.30;99.90
1129;DHT22;553;51.038;7.216;2024-03-06T05:52:06;6.40;99.90
1129;DHT22;553;51.038;7.216;2024-03-06T05:54:50;6.40;99.90
1129;DHT22;553;51.038;7.216;2024-03-06T05:57:35;6.50;99.90
1129;DHT22;553;51.038;7.216;2024-03-06T06:00:19;6.00;99.90
1129;DHT22;553;51.038;7.216;2024-03-06T06:02:48;5.80;99.90
1129;DHT22;553;51.038;7.216;2024-03-06T06:05:15;5.90;99.90
1129;DHT22;553;51.038;7.216;2024-03-06T06:07:52;6.00;99.90
1129;DHT22;553;51.038;7.216;2024-03-06T06:10:19;6.00;99.90
1129;DHT22;553;51.038;7.216;2024-03-06T06:12:48;6.10;99.90
1129;DHT22;553;51.038;7.216;2024-03-06T06:15:15;6.10;99.90
1129;DHT22;553;51.038;7.216;2024-03-06T06:17:42;6.20;99.90
1129;DHT22;553;51.038;7.216;2024-03-06T06:20:12;6.30;99.90
1129;DHT22;553;51.038;7.216;2024-03-06T06:22:44;6.40;99.90
1129;DHT22;553;51.038;7.216;2024-03-06T06:25:11;6.40;99.90
1129;DHT22;553;51.038;7.216;2024-03-06T06:27:39;6.50;99.90
1129;DHT22;553;51.038;7.216;2024-03-06T06:30:06;6.40;99.90
1129;DHT22;553;51.038;7.216;2024-03-06T06:32:38;6.50;99.90
1129;DHT22;553;51.038;7.216;2024-03-06T06:35:07;6.60;99.90
1129;DHT22;553;51.038;7.216;2024-03-06T06:37:36;6.60;99.90
1129;DHT22;553;51.038;7.216;2024-03-06T06:40:03;6.70;99.90
1129;DHT22;553;51.038;7.216;2024-03-06T06:42:34;6.80;99.90
1129;DHT22;553;51.038;7.216;2024-03-06T06:45:01;6.80;99.90
1129;DHT22;553;51.038;7.216;2024-03-06T06:47:29;6.80;99.90
1129;DHT22;553;51.038;7.216;2024-03-06T06:49:55;6.80;99.90
1129;DHT22;553;51.038;7.216;2024-03-06T06:52:22;6.80;99.90
1129;DHT22;553;51.038;7.216;2024-03-06T06:54:49;6.80;99.90
1129;DHT22;553;51.038;7.216;2024-03-06T06:57:17;6.90;99.90
1129;DHT22;553;51.038;7.216;2024-03-06T06:59:44;6.90;99.90
1129;DHT22;553;51.038;7.216;2024-03-06T07:02:11;6.80;99.90
1129;DHT22;553;51.038;7.216;2024-03-06T07:04:38;6.80;99.90
1129;DHT22;553;51.038;7.216;2024-03-06T07:07:06;6.80;99.90
1129;DHT22;553;51.038;7.216;2024-03-06T07:09:33;6.80;99.90
1129;DHT22;553;51.038;7.216;2024-03-06T07:12:00;6.90;99.90
1129;DHT22;553;51.038;7.216;2024-03-06T07:14:27;6.90;99.90
1129;DHT22;553;51.038;7.216;2024-03-06T07:16:54;6.90;99.90
1129;DHT22;553;51.038;7.216;2024-03-06T07:19:21;7.00;99.90
1129;DHT22;553;51.038;7.216;2024-03-06T07:21:48;6.90;99.90
1129;DHT22;553;51.038;7.216;2024-03-06T07:24:14;7.00;99.90
1129;DHT22;553;51.038;7.216;2024-03-06T07:26:41;7.00;99.90
1129;DHT22;553;51.038;7.216;2024-03-06T07:29:08;7.00;99.90
1129;DHT22;553;51.038;7.216;2024-03-06T07:31:41;7.00;99.90
1129;DHT22;553;51.038;7.216;2024-03-06T07:34:08;7.00;99.90
1129;DHT22;553;51.038;7.216;2024-03-06T07:36:36;6.90;99.90
1129;DHT22;553;51.038;7.216;2024-03-06T07:39:03;6.90;99.90
1129;DHT22;553;51.038;7.216;2024-03-06T07:41:31;6.90;99.90
1129;DHT22;553;51.038;7.216;2024-03-06T07:44:02;7.00;99.90
1129;DHT22;553;51.038;7.216;2024-03-06T07:46:29;6.90;99.90
1129;DHT22;553;51.038;7.216;2024-03-06T07:48:56;6.90;99.90
1129;DHT22;553;51.038;7.216;2024-03-06T07:51:23;6.90;99.90
1129;DHT22;553;51.038;7.216;2024-03-06T07:53:50;6.90;99.90
1129;DHT22;553;51.038;7.216;2024-03-06T07:56:17;6.90;99.90
1129;DHT22;553;51.038;7.216;2024-03-06T07:58:44;6.90;99.90
1129;DHT22;553;51.038;7.216;2024-03-06T08:01:11;6.80;99.90
1129;DHT22;553;51.038;7.216;2024-03-06T08:03:40;6.80;99.90
1129;DHT22;553;51.038;7.216;2024-03-06T08:06:10;6.80;99.90
1129;DHT22;553;51.038;7.216;2024-03-06T08:08:40;6.80;99.90
1129;DHT22;553;51.038;7.216;2024-03-06T08:11:07;6.70;99.90
1129;DHT22;553;51.038;7.216;2024-03-06T08:13:38;6.80;99.90
1129;DHT22;553;51.038;7.216;2024-03-06T08:16:05;6.80;99.90
1129;DHT22;553;51.038;7.216;2024-03-06T08:18:33;6.80;99.90
1129;DHT22;553;51.038;7.216;2024-03-06T08:21:01;6.80;99.90
1129;DHT22;553;51.038;7.216;2024-03-06T08:23:29;6.80;99.90
1129;DHT22;553;51.038;7.216;2024-03-06T08:25:57;6.90;99.90
1129;DHT22;553;51.038;7.216;2024-03-06T08:28:24;6.90;99.90
1129;DHT22;553;51.038;7.216;2024-03-06T08:30:50;6.90;99.90
1129;DHT22;553;51.038;7.216;2024-03-06T08:33:18;6.80;99.90
1129;DHT22;553;51.038;7.216;2024-03-06T08:35:48;6.90;99.90
1129;DHT22;553;51.038;7.216;2024-03-06T08:38:15;6.90;99.90
1129;DHT22;553;51.038;7.216;2024-03-06T08:40:43;6.80;99.90
1129;DHT22;553;51.038;7.216;2024-03-06T08:43:12;6.80;99.90
1129;DHT22;553;51.038;7.216;2024-03-06T08:45:41;6.80;99.90
1129;DHT22;553;51.038;7.216;2024-03-06T08:48:08;6.80;99.90
1129;DHT22;553;51.038;7.216;2024-03-06T08:50:35;7.00;99.90
1129;DHT22;553;51.038;7.216;2024-03-06T08:53:02;7.00;99.90
1129;DHT22;553;51.038;7.216;2024-03-06T08:55:29;6.90;99.90
1129;DHT22;553;51.038;7.216;2024-03-06T08:57:56;7.00;99.90
1129;DHT22;553;51.038;7.216;2024-03-06T09:00:23;6.80;99.90
1129;DHT22;553;51.038;7.216;2024-03-06T09:02:52;6.80;99.90
1129;DHT22;553;51.038;7.216;2024-03-06T09:05:20;7.00;99.90
1129;DHT22;553;51.038;7.216;2024-03-06T09:07:48;7.10;99.90
1129;DHT22;553;51.038;7.216;2024-03-06T09:10:15;7.20;99.90
1129;DHT22;553;51.038;7.216;2024-03-06T09:12:42;7.30;99.90
1129;DHT22;553;51.038;7.216;2024-03-06T09:15:09;7.30;99.90
1129;DHT22;553;51.038;7.216;2024-03-06T09:17:36;7.30;99.90
1129;DHT22;553;51.038;7.216;2024-03-06T09:20:05;7.30;99.90
1129;DHT22;553;51.038;7.216;2024-03-06T09:22:41;7.30;99.90
1129;DHT22;553;51.038;7.216;2024-03-06T09:25:09;7.40;99.90
1129;DHT22;553;51.038;7.216;2024-03-06T09:27:37;7.60;99.90
1129;DHT22;553;51.038;7.216;2024-03-06T09:30:04;7.60;99.90
1129;DHT22;553;51.038;7.216;2024-03-06T09:32:31;7.70;99.90
1129;DHT22;553;51.038;7.216;2024-03-06T09:34:59;7.70;99.90
1129;DHT22;553;51.038;7.216;2024-03-06T09:37:27;7.70;99.90
1129;DHT22;553;51.038;7.216;2024-03-06T09:39:54;7.70;99.90
1129;DHT22;553;51.038;7.216;2024-03-06T09:42:23;7.70;99.90
1129;DHT22;553;51.038;7.216;2024-03-06T09:44:50;7.70;99.90
1129;DHT22;553;51.038;7.216;2024-03-06T09:47:21;9.10;99.90
1129;DHT22;553;51.038;7.216;2024-03-06T09:49:52;8.90;99.90
1129;DHT22;553;51.038;7.216;2024-03-06T09:52:24;8.70;99.90
1129;DHT22;553;51.038;7.216;2024-03-06T09:54:54;8.60;99.90
1129;DHT22;553;51.038;7.216;2024-03-06T09:57:20;8.40;99.90
1129;DHT22;553;51.038;7.216;2024-03-06T09:59:47;8.30;99.90
1129;DHT22;553;51.038;7.216;2024-03-06T10:02:31;8.20;99.90
1129;DHT22;553;51.038;7.216;2024-03-06T10:05:01;8.10;99.90
1129;DHT22;553;51.038;7.216;2024-03-06T10:07:28;8.10;99.90
1129;DHT22;553;51.038;7.216;2024-03-06T10:09:55;8.20;99.90
1129;DHT22;553;51.038;7.216;2024-03-06T10:12:22;8.20;99.90
1129;DHT22;553;51.038;7.216;2024-03-06T10:14:50;8.30;99.90
1129;DHT22;553;51.038;7.216;2024-03-06T10:17:21;8.30;99.90
1129;DHT22;553;51.038;7.216;2024-03-06T10:19:54;8.40;99.90
1129;DHT22;553;51.038;7.216;2024-03-06T10:22:21;8.50;99.90
1129;DHT22;553;51.038;7.216;2024-03-06T10:24:55;8.50;99.90
1129;DHT22;553;51.038;7.216;2024-03-06T10:27:22;8.50;99.90
1129;DHT22;553;51.038;7.216;2024-03-06T10:30:03;8.50;99.90
1129;DHT22;553;51.038;7.216;2024-03-06T10:32:32;8.60;99.90
1129;DHT22;553;51.038;7.216;2024-03-06T10:34:59;8.70;99.90
1129;DHT22;553;51.038;7.216;2024-03-06T10:37:26;8.80;99.90
1129;DHT22;553;51.038;7.216;2024-03-06T10:39:56;9.00;99.90
1129;DHT22;553;51.038;7.216;2024-03-06T10:42:28;9.10;99.90
1129;DHT22;553;51.038;7.216;2024-03-06T10:44:55;9.10;99.90
1129;DHT22;553;51.038;7.216;2024-03-06T10:47:25;9.20;99.90
1129;DHT22;553;51.038;7.216;2024-03-06T10:49:54;9.40;99.90
1129;DHT22;553;51.038;7.216;2024-03-06T10:52:22;9.70;99.90
1129;DHT22;553;51.038;7.216;2024-03-06T10:54:49;10.00;99.90
1129;DHT22;553;51.038;7.216;2024-03-06T10:57:17;10.20;99.90
1129;DHT22;553;51.038;7.216;2024-03-06T10:59:45;10.10;99.90
1129;DHT22;553;51.038;7.216;2024-03-06T11:02:12;11.40;99.90
1129;DHT22;553;51.038;7.216;2024-03-06T11:04:40;12.10;99.90
1129;DHT22;553;51.038;7.216;2024-03-06T11:07:08;12.10;99.90
1129;DHT22;553;51.038;7.216;2024-03-06T11:09:40;12.10;99.90
1129;DHT22;553;51.038;7.216;2024-03-06T11:12:07;11.80;99.90
1129;DHT22;553;51.038;7.216;2024-03-06T11:14:39;11.70;99.90
1129;DHT22;553;51.038;7.216;2024-03-06T11:17:09;11.40;99.90
1129;DHT22;553;51.038;7.216;2024-03-06T11:25:55;11.40;99.90
1129;DHT22;553;51.038;7.216;2024-03-06T11:28:24;11.30;99.90
1129;DHT22;553;51.038;7.216;2024-03-06T11:30:55;11.30;99.90
1129;DHT22;553;51.038;7.216;2024-03-06T11:33:22;11.50;99.90
1129;DHT22;553;51.038;7.216;2024-03-06T11:36:14;11.50;99.90
1129;DHT22;553;51.038;7.216;2024-03-06T11:38:59;11.40;99.90
1129;DHT22;553;51.038;7.216;2024-03-06T11:41:29;11.50;99.90
1129;DHT22;553;51.038;7.216;2024-03-06T11:43:59;11.60;99.90
1129;DHT22;553;51.038;7.216;2024-03-06T11:46:50;11.60;99.90
1129;DHT22;553;51.038;7.216;2024-03-06T11:49:18;11.70;99.90
1129;DHT22;553;51.038;7.216;2024-03-06T11:51:52;11.70;99.90
1129;DHT22;553;51.038;7.216;2024-03-06T11:54:20;11.90;99.90
1129;DHT22;553;51.038;7.216;2024-03-06T11:56:51;12.00;99.90
1129;DHT22;553;51.038;7.216;2024-03-06T11:59:22;11.90;99.90
1129;DHT22;553;51.038;7.216;2024-03-06T12:01:59;11.90;99.90
1129;DHT22;553;51.038;7.216;2024-03-06T12:04:34;11.90;99.90
1129;DHT22;553;51.038;7.216;2024-03-06T12:07:01;12.00;99.90
1129;DHT22;553;51.038;7.216;2024-03-06T12:09:39;12.10;99.90
1129;DHT22;553;51.038;7.216;2024-03-06T12:12:10;12.20;99.50
1129;DHT22;553;51.038;7.216;2024-03-06T12:14:38;12.30;99.90
1129;DHT22;553;51.038;7.216;2024-03-06T12:17:12;12.50;99.90
1129;DHT22;553;51.038;7.216;2024-03-06T12:19:43;12.50;97.90
1129;DHT22;553;51.038;7.216;2024-03-06T12:22:13;12.60;97.60
1129;DHT22;553;51.038;7.216;2024-03-06T12:24:42;12.70;96.60
1129;DHT22;553;51.038;7.216;2024-03-06T12:27:09;12.90;95.90
1129;DHT22;553;51.038;7.216;2024-03-06T12:29:36;12.70;94.80
1129;DHT22;553;51.038;7.216;2024-03-06T12:32:04;13.00;94.50
1129;DHT22;553;51.038;7.216;2024-03-06T12:34:42;12.70;93.20
1129;DHT22;553;51.038;7.216;2024-03-06T12:37:09;12.80;95.00
1129;DHT22;553;51.038;7.216;2024-03-06T12:39:39;12.70;94.30
1129;DHT22;553;51.038;7.216;2024-03-06T12:42:10;13.10;93.60
1129;DHT22;553;51.038;7.216;2024-03-06T12:44:37;12.80;92.70
1129;DHT22;553;51.038;7.216;2024-03-06T12:47:06;12.80;93.90
1129;DHT22;553;51.038;7.216;2024-03-06T12:49:33;12.90;94.30
1129;DHT22;553;51.038;7.216;2024-03-06T12:51:59;13.00;94.70
1129;DHT22;553;51.038;7.216;2024-03-06T12:54:31;12.90;93.10
1129;DHT22;553;51.038;7.216;2024-03-06T12:56:58;13.10;92.70
1129;DHT22;553;51.038;7.216;2024-03-06T12:59:24;13.20;93.00
1129;DHT22;553;51.038;7.216;2024-03-06T13:01:52;13.30;92.90
1129;DHT22;553;51.038;7.216;2024-03-06T13:04:19;13.20;90.70
1129;DHT22;553;51.038;7.216;2024-03-06T13:06:46;13.20;90.30
1129;DHT22;553;51.038;7.216;2024-03-06T13:09:13;13.20;92.00
1129;DHT22;553;51.038;7.216;2024-03-06T13:11:41;13.30;91.30
1129;DHT22;553;51.038;7.216;2024-03-06T13:14:09;13.30;90.20
1129;DHT22;553;51.038;7.216;2024-03-06T13:16:39;13.40;90.30
1129;DHT22;553;51.038;7.216;2024-03-06T13:19:06;13.40;89.70
1129;DHT22;553;51.038;7.216;2024-03-06T13:21:34;13.40;89.90
1129;DHT22;553;51.038;7.216;2024-03-06T13:24:01;13.50;89.80
1129;DHT22;553;51.038;7.216;2024-03-06T13:26:27;13.50;90.50
1129;DHT22;553;51.038;7.216;2024-03-06T13:28:55;13.50;90.20
1129;DHT22;553;51.038;7.216;2024-03-06T13:31:22;13.40;89.00
1129;DHT22;553;51.038;7.216;2024-03-06T13:33:48;13.40;89.00
1129;DHT22;553;51.038;7.216;2024-03-06T13:36:15;13.40;90.10
1129;DHT22;553;51.038;7.216;2024-03-06T13:38:42;13.50;89.20
1129;DHT22;553;51.038;7.216;2024-03-06T13:41:10;13.70;85.50
1129;DHT22;553;51.038;7.216;2024-03-06T13:43:37;13.80;85.10
1129;DHT22;553;51.038;7.216;2024-03-06T13:46:04;13.70;83.60
1129;DHT22;553;51.038;7.216;2024-03-06T13:48:31;13.60;81.10
1129;DHT22;553;51.038;7.216;2024-03-06T13:50:58;13.50;82.10
1129;DHT22;553;51.038;7.216;2024-03-06T13:53:25;13.60;82.40
1129;DHT22;553;51.038;7.216;2024-03-06T13:55:52;13.60;82.70
1129;DHT22;553;51.038;7.216;2024-03-06T13:58:19;13.50;82.40
1129;DHT22;553;51.038;7.216;2024-03-06T14:00:46;13.50;84.00
1129;DHT22;553;51.038;7.216;2024-03-06T14:03:12;13.50;84.30
1129;DHT22;553;51.038;7.216;2024-03-06T14:05:39;13.40;85.10
1129;DHT22;553;51.038;7.216;2024-03-06T14:08:06;13.20;85.90
1129;DHT22;553;51.038;7.216;2024-03-06T14:10:34;13.20;86.70
1129;DHT22;553;51.038;7.216;2024-03-06T14:13:02;13.20;87.70
1129;DHT22;553;51.038;7.216;2024-03-06T14:15:29;13.00;87.80
1129;DHT22;553;51.038;7.216;2024-03-06T14:17:55;13.00;88.80
1129;DHT22;553;51.038;7.216;2024-03-06T14:20:23;12.90;89.70
1129;DHT22;553;51.038;7.216;2024-03-06T14:22:50;12.80;89.90
1129;DHT22;553;51.038;7.216;2024-03-06T14:25:17;12.80;89.20
1129;DHT22;553;51.038;7.216;2024-03-06T14:27:46;12.70;89.20
1129;DHT22;553;51.038;7.216;2024-03-06T14:30:13;12.70;90.00
1129;DHT22;553;51.038;7.216;2024-03-06T14:32:41;12.70;90.10
1129;DHT22;553;51.038;7.216;2024-03-06T14:35:08;12.70;91.50
1129;DHT22;553;51.038;7.216;2024-03-06T14:37:35;12.60;91.30
1129;DHT22;553;51.038;7.216;2024-03-06T14:40:02;12.70;92.10
1129;DHT22;553;51.038;7.216;2024-03-06T14:42:35;12.80;93.30
1129;DHT22;553;51.038;7.216;2024-03-06T14:45:01;12.90;91.10
1129;DHT22;553;51.038;7.216;2024-03-06T14:47:32;12.90;91.10
1129;DHT22;553;51.038;7.216;2024-03-06T14:49:59;12.80;91.10
1129;DHT22;553;51.038;7.216;2024-03-06T14:52:26;12.80;90.30
1129;DHT22;553;51.038;7.216;2024-03-06T14:54:52;12.70;91.00
1129;DHT22;553;51.038;7.216;2024-03-06T14:57:19;12.70;91.90
1129;DHT22;553;51.038;7.216;2024-03-06T14:59:48;12.70;91.20
1129;DHT22;553;51.038;7.216;2024-03-06T15:02:16;12.60;91.80
1129;DHT22;553;51.038;7.216;2024-03-06T15:04:43;12.50;91.90
1129;DHT22;553;51.038;7.216;2024-03-06T15:07:10;12.50;91.50
1129;DHT22;553;51.038;7.216;2024-03-06T15:09:37;12.50;91.50
1129;DHT22;553;51.038;7.216;2024-03-06T15:12:04;12.50;92.10
1129;DHT22;553;51.038;7.216;2024-03-06T15:14:31;12.40;92.30
1129;DHT22;553;51.038;7.216;2024-03-06T15:17:08;12.40;92.40
1129;DHT22;553;51.038;7.216;2024-03-06T15:19:35;12.40;92.50
1129;DHT22;553;51.038;7.216;2024-03-06T15:22:04;12.40;92.30
1129;DHT22;553;51.038;7.216;2024-03-06T15:24:31;12.40;92.30
1129;DHT22;553;51.038;7.216;2024-03-06T15:26:58;12.40;92.50
1129;DHT22;553;51.038;7.216;2024-03-06T15:29:24;12.40;93.60
1129;DHT22;553;51.038;7.216;2024-03-06T15:31:51;12.40;92.90
1129;DHT22;553;51.038;7.216;2024-03-06T15:34:18;12.30;92.40
1129;DHT22;553;51.038;7.216;2024-03-06T15:36:45;12.40;92.90
1129;DHT22;553;51.038;7.216;2024-03-06T15:39:11;12.50;92.70
1129;DHT22;553;51.038;7.216;2024-03-06T15:41:39;12.50;92.70
1129;DHT22;553;51.038;7.216;2024-03-06T15:44:06;12.60;92.80
1129;DHT22;553;51.038;7.216;2024-03-06T15:46:34;12.70;92.80
1129;DHT22;553;51.038;7.216;2024-03-06T15:49:19;12.70;92.10
1129;DHT22;553;51.038;7.216;2024-03-06T15:51:51;12.70;91.60
1129;DHT22;553;51.038;7.216;2024-03-06T15:54:21;12.70;91.60
1129;DHT22;553;51.038;7.216;2024-03-06T15:56:47;12.70;92.40
1129;DHT22;553;51.038;7.216;2024-03-06T15:59:14;12.70;92.50
1129;DHT22;553;51.038;7.216;2024-03-06T16:01:42;12.60;93.00
1129;DHT22;553;51.038;7.216;2024-03-06T16:04:08;12.60;93.70
1129;DHT22;553;51.038;7.216;2024-03-06T16:06:35;12.60;93.60
1129;DHT22;553;51.038;7.216;2024-03-06T16:09:07;12.50;93.90
1129;DHT22;553;51.038;7.216;2024-03-06T16:11:40;12.60;94.30
1129;DHT22;553;51.038;7.216;2024-03-06T16:14:07;12.60;94.30
1129;DHT22;553;51.038;7.216;2024-03-06T16:16:35;12.60;94.20
1129;DHT22;553;51.038;7.216;2024-03-06T16:19:02;12.60;94.20
1129;DHT22;553;51.038;7.216;2024-03-06T16:21:29;12.60;94.30
1129;DHT22;553;51.038;7.216;2024-03-06T16:23:56;12.50;94.90
1129;DHT22;553;51.038;7.216;2024-03-06T16:26:31;12.50;94.70
1129;DHT22;553;51.038;7.216;2024-03-06T16:28:59;12.50;95.30
1129;DHT22;553;51.038;7.216;2024-03-06T16:31:25;12.40;95.30
1129;DHT22;553;51.038;7.216;2024-03-06T16:33:52;12.40;95.80
1129;DHT22;553;51.038;7.216;2024-03-06T16:36:20;12.50;95.40
1129;DHT22;553;51.038;7.216;2024-03-06T16:38:47;12.50;95.60
1129;DHT22;553;51.038;7.216;2024-03-06T16:41:15;12.50;95.60
1129;DHT22;553;51.038;7.216;2024-03-06T16:43:42;12.40;94.80
1129;DHT22;553;51.038;7.216;2024-03-06T16:46:09;12.40;95.10